Aérodrome :
LOGIN :

S'inscrire | Disclaimer

   EN    FR    IT 

 










Légende :    VFR   VFR Marginal   IFR   IFR Intensif   IFR Très Intensif
Visi : 
Plafond : 
>= 8 km
>= 3000ft
5 à 8 km
1000 à 3000 ft
1500m à 5 km
500 à 1000 ft
800 à 1500m
200 à 500 ft
< 800m
< 200 ft
Symboles :   Orages  Brouillard  Fortes neiges  Fortes précipitations  Vent > 20 kt
SIGMETs :   Divers  Orages  Givrage  Turbulence  Onde Orograph.  Cendres Volcan.






- Altitude de l'aérodrome : 885 ft
- Code IATA : BAS


LFSB - Bale-Mulhouse

DERNIER METAR :
  • 101200Z 31004KT 240V360 CAVOK 17/03 Q1013 NOSIG

METARs EXPIRÉS :
  • 101130Z 12003KT 050V200 CAVOK 17/03 Q1014 NOSIG
  • 101100Z VRB04KT CAVOK 16/04 Q1014 NOSIG
  • 101030Z 14003KT 060V210 CAVOK 15/03 Q1015 NOSIG
  • 101000Z VRB03KT CAVOK 14/03 Q1015 NOSIG
  • 100930Z 10004KT 050V150 CAVOK 13/03 Q1015 NOSIG
  • 100911Z 12005KT 080V160 CAVOK 13/04 Q1016 NOSIG

TAF TAF LFSB
Valide du 10 à 12h jusqu'au 11 à 12h UTC


101100Z 1012/1112 VRB04KT CAVOK
PROB30
TEMPO 1015/1020 FEW065TCU
Météo : +33 3 89 90 31 11



MET'MAP, la Météo Aéronautique d'un coup d'oeil ! - Copyright ORBIFLY Décembre 2007 - Disclaimer

ORBIFLY MET'MAP TEAM :

Programmation & Développement : Alexandra Zaïnal
Sur une idée originale de : Baudouin d'Aumeries
Assistance à la programmation : Marc-Olivier Méhu
Soutien technique & logistique : Manuel Goepfert

Contact : metmap@orbifly.com




SOURCES & CREDITS :

   NOAA